Time;durP1;ratioP1;P1;durP2;ratioP2;P2;SDS_P1;SDS_P2;PMS_P1;PMS_P2;Temp;Humidity;BMP_temperature;BMP_pressure;BME280_temperature;BME280_humidity;BME280_pressure;Samples;Min_cycle;Max_cycle;Signal;HPM_P1;HPM_P2
2021/09/22 00:00:11;;;;;;;9.07;8.17;;;10.50;99.90;;;;;;5051256;28;20186;-80
2021/09/22 00:02:37;;;;;;;8.23;7.43;;;10.50;99.90;;;;;;5036630;28;20182;-80
2021/09/22 00:05:03;;;;;;;10.33;8.33;;;10.50;99.90;;;;;;5017442;28;20258;-80
2021/09/22 00:07:28;;;;;;;9.13;8.00;;;10.50;99.90;;;;;;5028264;23;20279;-80
2021/09/22 00:09:54;;;;;;;12.53;8.17;;;10.40;99.90;;;;;;5035097;28;20182;-80
2021/09/22 00:12:19;;;;;;;10.87;7.70;;;10.40;99.90;;;;;;5018143;28;20214;-80
2021/09/22 00:14:45;;;;;;;10.40;8.33;;;10.40;99.90;;;;;;5029792;28;20227;-80
2021/09/22 00:17:10;;;;;;;10.23;7.50;;;10.40;99.90;;;;;;5034334;28;20186;-80
2021/09/22 00:19:36;;;;;;;10.67;7.97;;;10.40;99.90;;;;;;4995033;28;20180;-80
2021/09/22 00:22:02;;;;;;;12.57;8.77;;;10.30;99.90;;;;;;5027690;28;20179;-80
2021/09/22 00:24:27;;;;;;;10.33;8.57;;;10.30;99.90;;;;;;5010877;28;20682;-80
2021/09/22 00:26:53;;;;;;;8.87;7.70;;;10.30;99.90;;;;;;5011191;28;20186;-79
2021/09/22 00:29:18;;;;;;;11.37;8.77;;;10.30;99.90;;;;;;4994565;28;20182;-80
2021/09/22 00:31:44;;;;;;;10.20;8.40;;;10.30;99.90;;;;;;4994547;28;20206;-80
2021/09/22 00:34:09;;;;;;;9.63;7.77;;;10.20;99.90;;;;;;4994148;28;20221;-80
2021/09/22 00:36:35;;;;;;;9.80;8.73;;;10.20;99.90;;;;;;5027481;28;20174;-80
2021/09/22 00:39:01;;;;;;;11.67;8.50;;;10.20;99.90;;;;;;4994374;28;20533;-80
2021/09/22 00:41:26;;;;;;;10.70;8.10;;;10.20;99.90;;;;;;4994419;28;20186;-80
2021/09/22 00:43:52;;;;;;;8.70;7.47;;;10.20;99.90;;;;;;5010640;28;20195;-80
2021/09/22 00:46:18;;;;;;;12.43;8.23;;;10.20;99.90;;;;;;5011668;28;20202;-78
2021/09/22 00:48:43;;;;;;;9.17;7.67;;;10.20;99.90;;;;;;4995869;28;20186;-78
2021/09/22 00:51:09;;;;;;;10.03;8.23;;;10.20;99.90;;;;;;4997810;28;20221;-78
2021/09/22 00:56:03;;;;;;;10.10;8.23;;;10.10;99.90;;;;;;5033636;28;20264;-78
2021/09/22 00:58:29;;;;;;;11.33;8.77;;;10.10;99.90;;;;;;5001371;28;20655;-78
2021/09/22 01:00:55;;;;;;;10.73;8.07;;;10.10;99.90;;;;;;5001024;28;20177;-78
2021/09/22 01:03:20;;;;;;;11.57;8.77;;;10.10;99.90;;;;;;5017127;28;20234;-78
2021/09/22 01:05:46;;;;;;;9.73;8.37;;;10.00;99.90;;;;;;5017365;28;20200;-78
2021/09/22 01:08:13;;;;;;;11.17;8.63;;;10.00;99.90;;;;;;5017410;28;20174;-80
2021/09/22 01:10:39;;;;;;;9.77;8.70;;;10.00;99.90;;;;;;5017383;28;20181;-78
2021/09/22 01:13:04;;;;;;;12.23;9.10;;;10.00;99.90;;;;;;5017118;28;20210;-78
2021/09/22 01:15:36;;;;;;;10.93;8.60;;;9.90;99.90;;;;;;5017075;28;20620;-79
2021/09/22 01:18:02;;;;;;;11.47;8.53;;;9.90;99.90;;;;;;5027978;28;20734;-81
2021/09/22 01:20:30;;;;;;;11.67;9.07;;;9.90;99.90;;;;;;5004757;28;20662;-78
2021/09/22 01:22:56;;;;;;;12.47;9.53;;;9.90;99.90;;;;;;5017299;28;20204;-78
2021/09/22 01:25:22;;;;;;;9.77;8.53;;;9.90;99.90;;;;;;5000806;28;20214;-78
2021/09/22 01:27:48;;;;;;;9.57;8.50;;;9.90;99.90;;;;;;5000670;28;20206;-78
2021/09/22 01:30:14;;;;;;;10.67;8.97;;;9.90;99.90;;;;;;5033195;28;20265;-78
2021/09/22 01:32:57;;;;;;;12.13;9.23;;;9.90;99.90;;;;;;5016841;28;20380;-78
2021/09/22 01:35:22;;;;;;;10.73;9.23;;;9.90;99.90;;;;;;5004261;28;20522;-79
2021/09/22 01:37:48;;;;;;;13.23;10.10;;;9.90;99.90;;;;;;5000467;28;20188;-78
2021/09/22 01:40:15;;;;;;;14.23;10.03;;;9.90;99.90;;;;;;5016773;28;20169;-79
2021/09/22 01:42:40;;;;;;;12.23;9.83;;;9.80;99.90;;;;;;5000162;28;20605;-81
2021/09/22 01:45:11;;;;;;;10.87;9.67;;;9.80;99.90;;;;;;5016634;28;20183;-78
2021/09/22 01:47:36;;;;;;;13.43;9.67;;;9.80;99.90;;;;;;5009756;28;20815;-82
2021/09/22 01:50:13;;;;;;;11.97;9.73;;;9.80;99.90;;;;;;5001302;28;20184;-79
2021/09/22 01:52:39;;;;;;;12.00;9.80;;;9.80;99.90;;;;;;5016427;28;20197;-78
2021/09/22 01:55:05;;;;;;;13.07;9.67;;;9.80;99.90;;;;;;5000257;28;20200;-80
2021/09/22 01:57:31;;;;;;;12.27;10.17;;;9.80;99.90;;;;;;5000066;28;20181;-78
2021/09/22 01:59:56;;;;;;;14.10;9.77;;;9.70;99.90;;;;;;5016473;28;20653;-78
2021/09/22 02:02:22;;;;;;;11.87;10.27;;;9.70;99.90;;;;;;4999371;28;20182;-77
2021/09/22 02:04:47;;;;;;;14.10;10.13;;;9.70;99.90;;;;;;5015650;28;20672;-78
2021/09/22 02:07:13;;;;;;;12.30;10.07;;;9.70;99.90;;;;;;5000099;28;20182;-80
2021/09/22 02:09:39;;;;;;;14.73;10.43;;;9.70;99.90;;;;;;5005073;28;20202;-82
2021/09/22 02:12:04;;;;;;;12.27;10.20;;;9.60;99.90;;;;;;5003966;28;20245;-83
2021/09/22 02:14:30;;;;;;;12.80;10.20;;;9.60;99.90;;;;;;5002726;28;20281;-82
2021/09/22 02:16:55;;;;;;;13.03;10.10;;;9.60;99.90;;;;;;5002019;28;20633;-83
2021/09/22 02:19:21;;;;;;;12.63;9.93;;;9.60;99.90;;;;;;5002411;28;20188;-82
2021/09/22 02:21:47;;;;;;;12.37;9.87;;;9.60;99.90;;;;;;5018672;28;20530;-82
2021/09/22 02:24:12;;;;;;;13.47;10.83;;;9.60;99.90;;;;;;5018005;28;20212;-82
2021/09/22 02:26:39;;;;;;;12.50;9.87;;;9.60;99.90;;;;;;5002101;28;20185;-82
2021/09/22 02:29:04;;;;;;;12.57;9.77;;;9.60;99.90;;;;;;5002402;28;20190;-82
2021/09/22 02:31:30;;;;;;;13.70;10.13;;;9.60;99.90;;;;;;5034363;28;20185;-82
2021/09/22 02:33:55;;;;;;;14.50;10.63;;;9.50;99.90;;;;;;5001562;28;20290;-82
2021/09/22 02:36:21;;;;;;;13.60;10.23;;;9.50;99.90;;;;;;5017623;28;20286;-82
2021/09/22 02:38:46;;;;;;;12.00;10.37;;;9.50;99.90;;;;;;5017200;28;20189;-81
2021/09/22 02:41:12;;;;;;;12.80;10.73;;;9.50;99.90;;;;;;5001286;28;20182;-82
2021/09/22 02:43:38;;;;;;;14.27;10.43;;;9.40;99.90;;;;;;5000510;28;20197;-81
2021/09/22 02:46:03;;;;;;;13.20;10.83;;;9.40;99.90;;;;;;5017133;28;20363;-81
2021/09/22 02:48:30;;;;;;;12.27;10.97;;;9.40;99.90;;;;;;5001200;28;20247;-82
2021/09/22 02:50:56;;;;;;;14.43;10.57;;;9.40;99.90;;;;;;5001188;28;20189;-82
2021/09/22 02:53:21;;;;;;;13.93;10.43;;;9.40;99.90;;;;;;5034252;28;20596;-81
2021/09/22 02:55:48;;;;;;;11.90;10.03;;;9.40;99.90;;;;;;5017705;28;20652;-82
2021/09/22 02:58:13;;;;;;;11.27;9.90;;;9.40;99.90;;;;;;5017793;28;20185;-82
2021/09/22 03:00:40;;;;;;;13.33;10.13;;;9.40;99.90;;;;;;5001176;28;20185;-81
2021/09/22 03:03:05;;;;;;;13.60;11.10;;;9.40;99.90;;;;;;5017061;28;20273;-82
2021/09/22 03:05:31;;;;;;;15.17;10.93;;;9.40;99.90;;;;;;5033546;28;20265;-82
2021/09/22 03:07:56;;;;;;;12.00;10.30;;;9.30;99.90;;;;;;5035150;28;20256;-81
2021/09/22 03:10:22;;;;;;;11.80;10.33;;;9.40;99.90;;;;;;5000963;28;20189;-81
2021/09/22 03:12:47;;;;;;;12.37;9.77;;;9.30;99.90;;;;;;4999984;28;20219;-82
2021/09/22 03:15:13;;;;;;;15.70;11.00;;;9.30;99.90;;;;;;5016976;28;20169;-82
2021/09/22 03:17:39;;;;;;;13.33;10.60;;;9.30;99.90;;;;;;5017268;28;20181;-84
2021/09/22 03:20:05;;;;;;;12.70;10.23;;;9.30;99.90;;;;;;5017179;28;20172;-82
2021/09/22 03:22:30;;;;;;;14.10;10.67;;;9.30;99.90;;;;;;5001013;28;20180;-81
2021/09/22 03:24:56;;;;;;;13.63;11.00;;;9.20;99.90;;;;;;5017438;28;20552;-81
2021/09/22 03:27:21;;;;;;;14.40;11.07;;;9.20;99.90;;;;;;5017125;28;20610;-82
2021/09/22 03:29:47;;;;;;;15.13;11.43;;;9.20;99.90;;;;;;5016930;28;20184;-83
2021/09/22 03:32:13;;;;;;;13.80;11.23;;;9.30;99.90;;;;;;5016292;28;20628;-81
2021/09/22 03:34:38;;;;;;;14.50;10.77;;;9.20;99.90;;;;;;5017308;28;20224;-81
2021/09/22 03:37:04;;;;;;;13.23;11.07;;;9.30;99.90;;;;;;5000883;28;20231;-81
2021/09/22 03:39:29;;;;;;;14.87;11.17;;;9.30;99.90;;;;;;5017444;28;20176;-81
2021/09/22 03:41:55;;;;;;;15.20;11.10;;;9.20;99.90;;;;;;5017403;28;20205;-82
2021/09/22 03:44:20;;;;;;;13.73;10.80;;;9.20;99.90;;;;;;4999960;28;20200;-81
2021/09/22 03:46:46;;;;;;;14.57;11.00;;;9.30;99.90;;;;;;5017079;28;20190;-82
2021/09/22 03:49:12;;;;;;;11.73;9.83;;;9.20;99.90;;;;;;5033534;28;20317;-81
2021/09/22 03:51:37;;;;;;;12.57;11.03;;;9.20;99.90;;;;;;5000307;28;20189;-81
2021/09/22 03:54:03;;;;;;;14.83;11.00;;;9.20;99.90;;;;;;4999689;28;20212;-81
2021/09/22 03:56:28;;;;;;;15.53;10.77;;;9.20;99.90;;;;;;5000770;28;20713;-81
2021/09/22 03:58:54;;;;;;;16.07;11.13;;;9.20;99.90;;;;;;5000351;28;20184;-82
2021/09/22 04:01:19;;;;;;;16.03;11.60;;;9.20;99.90;;;;;;5000159;28;20211;-82
2021/09/22 04:03:45;;;;;;;17.67;11.60;;;9.10;99.90;;;;;;4999751;28;20198;-81
2021/09/22 04:06:10;;;;;;;14.10;11.77;;;9.10;99.90;;;;;;5016807;28;20183;-81
2021/09/22 04:08:36;;;;;;;11.93;10.00;;;9.10;99.90;;;;;;5016387;28;20203;-82
2021/09/22 04:11:02;;;;;;;14.10;11.07;;;9.10;99.90;;;;;;5000467;28;20179;-81
2021/09/22 04:13:27;;;;;;;14.37;11.50;;;9.10;99.90;;;;;;5016535;28;20211;-81
2021/09/22 04:15:53;;;;;;;15.37;11.70;;;9.00;99.90;;;;;;5016583;28;20179;-82
2021/09/22 04:18:18;;;;;;;14.27;11.77;;;9.00;99.90;;;;;;4999938;28;20175;-81
2021/09/22 04:20:44;;;;;;;17.33;11.90;;;9.10;99.90;;;;;;5000624;28;20182;-81
2021/09/22 04:23:09;;;;;;;13.97;11.50;;;9.00;99.90;;;;;;4999974;28;20209;-81
2021/09/22 04:25:35;;;;;;;15.70;11.53;;;9.00;99.90;;;;;;5018781;28;20174;-82
2021/09/22 04:28:00;;;;;;;14.33;11.47;;;9.00;99.90;;;;;;5004319;28;20288;-82
2021/09/22 04:30:26;;;;;;;15.13;12.00;;;9.00;99.90;;;;;;5003849;28;20242;-82
2021/09/22 04:32:51;;;;;;;15.60;11.83;;;8.90;99.90;;;;;;5004122;28;20219;-81
2021/09/22 04:35:17;;;;;;;15.47;11.93;;;8.90;99.90;;;;;;5020866;28;20173;-81
2021/09/22 04:37:42;;;;;;;15.63;12.10;;;8.90;99.90;;;;;;5004372;28;20176;-81
2021/09/22 04:40:11;;;;;;;17.20;12.40;;;8.90;99.90;;;;;;5000005;28;20212;-82
2021/09/22 04:42:36;;;;;;;16.20;11.93;;;8.90;99.90;;;;;;5016939;28;20181;-81
2021/09/22 04:45:02;;;;;;;15.40;12.60;;;8.90;99.90;;;;;;5000643;28;20539;-81
2021/09/22 04:47:29;;;;;;;15.37;11.87;;;8.90;99.90;;;;;;5000457;28;20192;-81
2021/09/22 04:49:56;;;;;;;14.33;11.57;;;8.90;99.90;;;;;;5000484;28;20446;-81
2021/09/22 04:52:22;;;;;;;15.07;11.83;;;8.90;99.90;;;;;;5016851;28;20206;-82
2021/09/22 04:54:48;;;;;;;16.27;12.57;;;9.00;99.90;;;;;;5017560;28;20213;-81
2021/09/22 04:57:13;;;;;;;16.63;12.70;;;9.00;99.90;;;;;;5016961;28;20179;-81
2021/09/22 04:59:39;;;;;;;16.73;11.93;;;8.90;99.90;;;;;;5000789;28;20182;-81
2021/09/22 05:02:04;;;;;;;19.03;13.23;;;8.90;99.90;;;;;;5017317;28;20236;-82
2021/09/22 05:04:30;;;;;;;17.33;12.23;;;8.90;99.90;;;;;;4999208;28;20205;-81
2021/09/22 05:06:55;;;;;;;17.50;13.17;;;8.90;99.90;;;;;;5014990;28;20242;-83
2021/09/22 05:09:21;;;;;;;16.67;12.67;;;8.90;99.90;;;;;;5003129;28;20288;-81
2021/09/22 05:11:46;;;;;;;14.93;11.50;;;8.90;99.90;;;;;;5002683;28;20187;-83
2021/09/22 05:14:12;;;;;;;14.73;11.97;;;9.00;99.90;;;;;;5002354;28;20265;-81
2021/09/22 05:16:37;;;;;;;15.93;12.17;;;8.90;99.90;;;;;;5002526;28;20215;-83
2021/09/22 05:19:03;;;;;;;16.57;12.53;;;8.90;99.90;;;;;;5002528;28;20609;-83
2021/09/22 05:21:28;;;;;;;14.03;11.30;;;8.90;99.90;;;;;;5003608;28;20180;-82
2021/09/22 05:23:54;;;;;;;15.37;12.77;;;8.90;99.90;;;;;;5018492;28;20207;-83
2021/09/22 05:26:19;;;;;;;17.70;12.40;;;8.90;99.90;;;;;;5002574;28;20180;-84
2021/09/22 05:28:45;;;;;;;17.13;12.30;;;8.90;99.90;;;;;;5002700;28;20186;-83
2021/09/22 05:31:11;;;;;;;19.27;13.17;;;8.90;99.90;;;;;;5003189;28;20232;-85
2021/09/22 05:33:36;;;;;;;18.17;13.43;;;8.90;99.90;;;;;;5002638;28;20669;-83
2021/09/22 05:36:02;;;;;;;17.67;12.63;;;8.90;99.90;;;;;;5019586;28;20188;-83
2021/09/22 05:38:28;;;;;;;15.03;11.87;;;8.90;99.90;;;;;;5002191;28;20221;-82
2021/09/22 05:40:53;;;;;;;17.13;13.23;;;8.90;99.90;;;;;;5016540;28;20248;-83
2021/09/22 05:43:19;;;;;;;16.50;12.37;;;9.00;99.90;;;;;;5002648;28;20212;-84
2021/09/22 05:45:44;;;;;;;15.10;11.80;;;9.00;99.90;;;;;;5019871;28;20176;-84
2021/09/22 05:48:10;;;;;;;21.40;13.03;;;9.00;99.90;;;;;;5019653;28;20551;-83
2021/09/22 05:50:35;;;;;;;16.83;12.47;;;9.10;99.90;;;;;;5003888;28;20197;-83
2021/09/22 05:53:01;;;;;;;17.20;12.80;;;9.10;99.90;;;;;;5036003;28;20260;-82
2021/09/22 05:55:26;;;;;;;19.27;13.40;;;9.20;99.90;;;;;;5019935;28;20196;-85
2021/09/22 05:57:52;;;;;;;18.50;12.80;;;9.30;99.90;;;;;;5018111;28;20264;-81
2021/09/22 06:00:18;;;;;;;17.77;13.60;;;9.30;99.90;;;;;;5018777;28;20190;-82
2021/09/22 06:02:43;;;;;;;17.70;12.80;;;9.30;99.90;;;;;;5018569;28;20268;-80
2021/09/22 06:05:09;;;;;;;19.13;13.33;;;9.40;99.90;;;;;;5002373;28;20185;-85
2021/09/22 06:07:34;;;;;;;17.30;13.30;;;9.50;99.90;;;;;;5001688;28;20185;-82
2021/09/22 06:10:02;;;;;;;18.17;13.03;;;9.50;99.90;;;;;;5017653;28;20210;-82
2021/09/22 06:12:28;;;;;;;16.60;13.07;;;9.50;99.90;;;;;;5002075;28;20210;-82
2021/09/22 06:14:54;;;;;;;16.97;12.80;;;9.60;99.90;;;;;;5001064;28;20192;-80
2021/09/22 06:17:19;;;;;;;16.93;13.47;;;9.60;99.90;;;;;;4989507;28;20185;-84
2021/09/22 06:19:45;;;;;;;17.97;13.53;;;9.70;99.90;;;;;;5006604;28;20264;-82
2021/09/22 06:22:10;;;;;;;17.53;12.90;;;9.80;99.90;;;;;;4990667;28;20205;-82
2021/09/22 06:24:36;;;;;;;15.83;13.37;;;9.90;99.90;;;;;;4988759;28;20210;-85
2021/09/22 06:27:01;;;;;;;21.87;13.37;;;9.90;99.90;;;;;;4983495;28;20192;-84
2021/09/22 06:29:27;;;;;;;17.43;13.27;;;10.00;99.90;;;;;;4987466;28;20224;-82
2021/09/22 06:31:54;;;;;;;18.80;12.63;;;10.00;99.90;;;;;;4986171;28;20181;-85
2021/09/22 06:34:20;;;;;;;21.17;13.40;;;10.20;99.90;;;;;;4983714;28;20692;-85
2021/09/22 06:36:46;;;;;;;20.27;13.97;;;10.10;99.90;;;;;;4997751;28;20183;-87
2021/09/22 06:39:11;;;;;;;16.90;13.17;;;10.20;99.90;;;;;;5003290;28;20189;-85
2021/09/22 06:41:37;;;;;;;18.17;13.37;;;10.20;99.90;;;;;;5001688;28;20174;-86
2021/09/22 06:44:02;;;;;;;19.93;13.70;;;10.30;99.90;;;;;;4999933;28;20221;-87
2021/09/22 06:46:28;;;;;;;19.83;14.73;;;10.30;99.90;;;;;;5017819;28;20182;-86
2021/09/22 06:48:53;;;;;;;20.87;14.43;;;10.50;99.90;;;;;;5001491;28;20215;-85
2021/09/22 06:51:19;;;;;;;21.97;15.43;;;10.60;99.90;;;;;;5001027;28;20192;-86
2021/09/22 06:53:45;;;;;;;22.13;15.17;;;10.70;99.90;;;;;;5021293;28;20274;-84
2021/09/22 06:56:11;;;;;;;20.33;15.23;;;10.90;99.90;;;;;;5005203;28;20704;-82
2021/09/22 06:58:36;;;;;;;20.10;14.77;;;11.00;99.90;;;;;;5004718;28;20202;-85
2021/09/22 07:01:02;;;;;;;22.10;15.43;;;11.10;99.90;;;;;;5005395;28;20200;-83
2021/09/22 07:03:27;;;;;;;22.00;14.87;;;11.30;99.90;;;;;;5022883;28;20217;-83
2021/09/22 07:05:53;;;;;;;22.67;15.57;;;11.50;99.90;;;;;;5007377;28;20181;-83
2021/09/22 07:08:19;;;;;;;20.90;16.17;;;11.60;99.90;;;;;;5006939;28;20675;-83
2021/09/22 07:10:45;;;;;;;20.97;16.07;;;11.80;99.90;;;;;;5022949;28;20194;-83
2021/09/22 07:13:10;;;;;;;22.37;15.97;;;12.00;99.90;;;;;;5005491;28;20213;-84
2021/09/22 07:15:36;;;;;;;24.40;15.87;;;12.10;99.90;;;;;;5005191;28;20229;-82
2021/09/22 07:18:02;;;;;;;23.77;16.00;;;12.10;99.90;;;;;;5021745;28;20175;-83
2021/09/22 07:20:27;;;;;;;19.20;16.00;;;12.20;99.90;;;;;;5004286;28;20178;-83
2021/09/22 07:22:53;;;;;;;21.27;15.53;;;12.30;99.90;;;;;;5004288;28;20203;-83
2021/09/22 07:25:18;;;;;;;22.20;16.50;;;12.30;99.90;;;;;;5005150;28;20193;-85
2021/09/22 07:27:44;;;;;;;26.13;18.10;;;12.30;99.90;;;;;;5004487;28;20178;-83
2021/09/22 07:30:13;;;;;;;25.37;17.20;;;12.40;99.90;;;;;;5004357;28;20190;-84
2021/09/22 07:32:38;;;;;;;25.40;17.23;;;12.50;99.90;;;;;;5003848;28;20206;-83
2021/09/22 07:35:04;;;;;;;23.63;17.53;;;12.70;99.90;;;;;;5002893;28;20178;-84
2021/09/22 07:37:30;;;;;;;24.63;18.17;;;12.80;99.90;;;;;;5002499;28;20175;-83
2021/09/22 07:39:55;;;;;;;23.47;18.17;;;13.00;99.90;;;;;;5018569;28;20540;-85
2021/09/22 07:42:21;;;;;;;26.53;17.33;;;13.20;99.90;;;;;;5001263;28;20540;-84
2021/09/22 07:44:47;;;;;;;23.90;17.30;;;13.40;99.90;;;;;;5017877;28;20574;-84
2021/09/22 07:47:14;;;;;;;24.30;17.63;;;13.50;99.90;;;;;;5001043;28;20670;-84
2021/09/22 07:49:41;;;;;;;28.30;19.87;;;13.70;99.90;;;;;;5017873;28;20692;-84
2021/09/22 07:52:07;;;;;;;25.00;18.60;;;13.90;99.90;;;;;;5002460;28;20272;-83
2021/09/22 07:54:33;;;;;;;27.27;18.73;;;14.20;99.90;;;;;;5003567;28;20210;-83
2021/09/22 07:56:58;;;;;;;26.23;18.90;;;14.50;99.90;;;;;;5020355;28;20179;-83
2021/09/22 07:59:24;;;;;;;31.87;20.60;;;14.50;99.90;;;;;;5004503;28;20556;-83
2021/09/22 08:01:50;;;;;;;27.87;18.63;;;14.60;99.90;;;;;;5020168;28;20658;-83
2021/09/22 08:04:16;;;;;;;30.47;20.57;;;14.60;99.90;;;;;;5004453;28;20201;-84
2021/09/22 08:06:41;;;;;;;29.67;20.57;;;14.60;99.90;;;;;;5005229;28;20198;-83
2021/09/22 08:09:07;;;;;;;27.73;19.60;;;14.60;99.90;;;;;;5005018;28;20943;-83
2021/09/22 08:11:33;;;;;;;30.77;21.67;;;14.50;99.90;;;;;;5004535;28;20266;-83
2021/09/22 08:13:58;;;;;;;30.53;22.70;;;14.70;99.90;;;;;;5004554;28;20294;-83
2021/09/22 08:16:25;;;;;;;31.13;22.30;;;14.80;99.90;;;;;;5022220;28;20182;-83
2021/09/22 08:18:52;;;;;;;29.77;22.63;;;15.00;99.90;;;;;;5024600;28;20181;-84
2021/09/22 08:21:18;;;;;;;31.37;22.50;;;15.30;99.90;;;;;;5012112;28;20619;-83
2021/09/22 08:23:43;;;;;;;31.20;22.67;;;15.60;99.90;;;;;;5014965;28;20222;-83
2021/09/22 08:26:09;;;;;;;31.33;21.63;;;15.90;99.90;;;;;;5014833;28;20190;-84
2021/09/22 08:28:34;;;;;;;29.87;22.00;;;16.20;99.90;;;;;;5005860;28;20642;-83
2021/09/22 08:31:00;;;;;;;29.77;21.47;;;16.40;99.90;;;;;;5004582;28;20229;-82
2021/09/22 08:33:25;;;;;;;29.67;22.00;;;16.60;99.90;;;;;;5004009;28;20210;-83
2021/09/22 08:35:51;;;;;;;31.00;22.60;;;16.80;99.90;;;;;;5004451;28;20247;-83
2021/09/22 08:38:17;;;;;;;28.83;21.00;;;17.00;99.90;;;;;;5003513;28;20183;-83
2021/09/22 08:40:42;;;;;;;28.27;22.60;;;17.30;99.90;;;;;;5019831;28;20185;-83
2021/09/22 08:43:08;;;;;;;27.43;21.17;;;17.60;99.90;;;;;;5000086;28;20221;-85
2021/09/22 08:45:34;;;;;;;27.97;21.53;;;18.00;99.90;;;;;;5004393;28;20183;-83
2021/09/22 08:47:59;;;;;;;25.37;21.27;;;18.40;99.90;;;;;;5004030;28;20662;-83
2021/09/22 08:50:25;;;;;;;26.57;20.83;;;18.90;99.90;;;;;;5000974;28;20183;-85
2021/09/22 08:52:51;;;;;;;28.80;21.63;;;19.50;99.90;;;;;;4999028;28;20273;-85
2021/09/22 08:55:16;;;;;;;26.67;21.27;;;20.10;99.90;;;;;;5015732;28;20191;-85
2021/09/22 08:57:42;;;;;;;26.13;20.77;;;20.50;99.90;;;;;;4998983;28;20182;-85
2021/09/22 09:00:10;;;;;;;26.40;21.37;;;20.70;99.90;;;;;;5016463;28;20175;-82
2021/09/22 09:02:38;;;;;;;24.67;20.13;;;20.30;99.90;;;;;;5003951;28;20274;-83
2021/09/22 09:05:06;;;;;;;25.43;20.47;;;20.00;99.90;;;;;;5004557;28;20206;-83
2021/09/22 09:07:33;;;;;;;25.53;20.20;;;19.70;99.90;;;;;;5003772;28;20186;-83
2021/09/22 09:10:06;;;;;;;25.33;20.43;;;19.50;99.90;;;;;;5003775;28;20657;-82
2021/09/22 09:12:32;;;;;;;24.00;20.57;;;19.60;99.90;;;;;;5005912;28;20582;-83
2021/09/22 09:14:58;;;;;;;24.63;20.03;;;20.10;99.90;;;;;;5007542;28;20179;-83
2021/09/22 09:17:49;;;;;;;24.53;20.43;;;20.20;99.90;;;;;;5007096;28;20178;-83
2021/09/22 09:20:18;;;;;;;23.43;20.40;;;20.10;99.90;;;;;;5010762;28;20175;-82
2021/09/22 09:23:04;;;;;;;26.63;21.00;;;19.40;99.90;;;;;;5039071;28;20654;-82
2021/09/22 09:25:32;;;;;;;27.13;19.77;;;18.80;99.90;;;;;;5038904;28;20248;-82
2021/09/22 09:27:58;;;;;;;24.00;19.77;;;18.50;99.90;;;;;;5023259;28;20183;-82
2021/09/22 09:30:25;;;;;;;21.20;18.20;;;18.50;99.90;;;;;;5006012;28;20190;-83
2021/09/22 09:32:51;;;;;;;22.07;19.20;;;18.50;99.90;;;;;;5005276;28;20207;-83
2021/09/22 09:35:21;;;;;;;24.73;18.90;;;18.70;99.90;;;;;;5007474;28;20179;-84
2021/09/22 09:37:48;;;;;;;23.30;18.67;;;18.80;99.90;;;;;;5006803;28;20171;-83
2021/09/22 09:40:19;;;;;;;22.97;18.83;;;18.80;99.90;;;;;;5023213;28;20167;-83
2021/09/22 09:42:45;;;;;;;24.53;19.17;;;18.70;99.90;;;;;;5046362;28;20175;-83
2021/09/22 09:45:10;;;;;;;23.10;19.27;;;18.60;99.90;;;;;;5014338;28;20205;-83
2021/09/22 09:47:36;;;;;;;23.47;18.90;;;18.60;99.90;;;;;;5014734;28;20179;-83
2021/09/22 09:50:21;;;;;;;21.63;17.77;;;18.80;99.90;;;;;;5008835;28;20183;-82
2021/09/22 09:52:57;;;;;;;26.23;20.77;;;18.80;99.90;;;;;;5007528;28;20690;-83
2021/09/22 09:55:25;;;;;;;26.00;18.67;;;18.80;99.90;;;;;;5024645;28;20197;-83
2021/09/22 09:57:50;;;;;;;24.47;20.37;;;18.90;99.90;;;;;;5007512;28;20565;-83
2021/09/22 10:00:20;;;;;;;24.83;20.73;;;19.40;99.90;;;;;;5023120;28;20171;-82
2021/09/22 10:02:46;;;;;;;23.97;20.07;;;19.60;99.90;;;;;;5006906;28;20675;-83
2021/09/22 10:05:11;;;;;;;25.63;20.73;;;19.70;99.90;;;;;;5008645;28;20178;-83
2021/09/22 10:07:37;;;;;;;24.67;20.03;;;19.90;99.90;;;;;;5007013;28;20210;-85
2021/09/22 10:10:03;;;;;;;23.97;19.50;;;20.00;99.90;;;;;;5001762;28;20650;-82
2021/09/22 10:12:29;;;;;;;24.33;18.60;;;20.10;99.90;;;;;;5017395;28;20207;-80
2021/09/22 10:14:54;;;;;;;22.50;18.23;;;20.30;99.90;;;;;;5016957;28;20184;-82
2021/09/22 10:17:20;;;;;;;21.80;16.33;;;20.30;99.90;;;;;;4998017;28;20179;-79
2021/09/22 10:19:46;;;;;;;20.93;17.53;;;20.20;99.90;;;;;;4998766;28;20218;-79
2021/09/22 10:22:12;;;;;;;21.57;16.80;;;20.30;99.90;;;;;;4998538;28;20183;-79
2021/09/22 10:24:38;;;;;;;21.03;16.97;;;20.30;99.90;;;;;;5014848;28;20191;-79
2021/09/22 10:27:04;;;;;;;21.63;16.40;;;20.30;99.90;;;;;;4999089;28;20186;-81
2021/09/22 10:29:36;;;;;;;18.67;15.93;;;20.40;99.90;;;;;;5018269;28;20182;-79
2021/09/22 10:32:03;;;;;;;21.60;15.53;;;20.50;99.90;;;;;;4999430;28;20259;-83
2021/09/22 10:34:36;;;;;;;16.80;15.00;;;20.60;99.90;;;;;;4998431;28;20699;-82
2021/09/22 10:37:04;;;;;;;19.47;16.27;;;20.50;99.90;;;;;;4998542;28;20164;-83
2021/09/22 10:39:36;;;;;;;22.33;16.87;;;20.40;99.90;;;;;;5014846;28;20176;-82
2021/09/22 10:42:01;;;;;;;21.03;15.23;;;20.40;99.90;;;;;;5014470;28;20362;-83
2021/09/22 10:44:35;;;;;;;17.90;14.83;;;20.20;99.90;;;;;;4997887;28;20743;-81
2021/09/22 10:47:30;;;;;;;18.73;14.80;;;20.10;99.90;;;;;;4998897;28;20171;-84
2021/09/22 10:49:56;;;;;;;16.97;13.47;;;20.40;99.90;;;;;;5007329;28;20214;-82
2021/09/22 10:52:31;;;;;;;16.67;13.10;;;20.40;99.90;;;;;;4989527;28;20200;-82
2021/09/22 10:55:10;;;;;;;14.30;11.70;;;20.50;99.90;;;;;;5003967;28;20197;-82
2021/09/22 10:57:37;;;;;;;16.03;11.87;;;20.50;99.90;;;;;;5002786;28;20206;-82
2021/09/22 11:00:09;;;;;;;15.30;11.17;;;20.60;99.90;;;;;;4986382;28;20592;-81
2021/09/22 11:02:44;;;;;;;16.70;13.20;;;20.60;99.90;;;;;;5016552;28;20176;-81
2021/09/22 11:05:10;;;;;;;15.53;11.80;;;20.60;99.90;;;;;;4983939;28;20182;-83
2021/09/22 11:08:02;;;;;;;16.73;11.77;;;20.70;99.90;;;;;;5001857;28;20234;-84
2021/09/22 11:10:41;;;;;;;15.90;12.60;;;21.00;99.90;;;;;;5020021;28;20192;-83
2021/09/22 11:13:19;;;;;;;15.57;11.80;;;21.00;99.90;;;;;;5015630;28;20215;-81
2021/09/22 11:15:54;;;;;;;16.07;12.33;;;21.10;99.90;;;;;;5016405;28;20168;-81
2021/09/22 11:18:21;;;;;;;18.80;13.33;;;21.20;99.90;;;;;;4982581;28;20250;-84
2021/09/22 11:20:53;;;;;;;15.50;12.27;;;21.30;99.90;;;;;;4980264;28;20194;-77
2021/09/22 11:23:18;;;;;;;17.93;13.37;;;21.20;99.90;;;;;;5013004;28;20234;-78
2021/09/22 11:25:44;;;;;;;13.13;11.27;;;21.20;99.90;;;;;;4996292;28;20215;-77
2021/09/22 11:28:10;;;;;;;15.87;12.23;;;21.30;99.90;;;;;;5012753;28;20179;-78
2021/09/22 11:30:36;;;;;;;13.63;10.67;;;21.30;99.90;;;;;;4995736;28;20171;-77
2021/09/22 11:33:01;;;;;;;11.53;10.17;;;21.30;99.90;;;;;;4995411;28;20257;-77
2021/09/22 11:35:30;;;;;;;14.30;10.17;;;21.10;99.90;;;;;;4994826;28;20218;-77
2021/09/22 11:37:57;;;;;;;12.67;9.60;;;21.00;99.90;;;;;;5011400;28;20673;-78
2021/09/22 11:40:31;;;;;;;12.30;9.30;;;20.80;99.90;;;;;;4995660;28;20172;-77
2021/09/22 11:43:05;;;;;;;11.57;8.97;;;20.90;99.90;;;;;;4979538;28;20203;-79
2021/09/22 11:45:35;;;;;;;12.13;9.77;;;21.00;99.90;;;;;;5013905;28;20186;-80
2021/09/22 11:48:00;;;;;;;13.17;10.20;;;21.10;99.90;;;;;;5013332;28;20175;-79
2021/09/22 11:50:28;;;;;;;14.90;10.53;;;21.10;99.90;;;;;;4997733;28;20180;-79
2021/09/22 11:52:55;;;;;;;11.33;9.70;;;21.00;99.90;;;;;;4998209;28;20331;-79
2021/09/22 11:55:21;;;;;;;9.50;7.10;;;20.90;99.90;;;;;;4998142;28;20629;-79
2021/09/22 11:57:47;;;;;;;11.53;7.27;;;21.00;99.90;;;;;;4997402;28;20620;-79
2021/09/22 12:00:17;;;;;;;7.43;5.83;;;21.00;99.90;;;;;;4997696;28;20588;-79
2021/09/22 12:02:42;;;;;;;8.33;5.90;;;21.00;99.90;;;;;;4981110;28;20621;-79
2021/09/22 12:05:13;;;;;;;8.13;6.23;;;21.00;99.90;;;;;;4981352;28;20229;-79
2021/09/22 12:07:38;;;;;;;10.27;6.30;;;20.90;99.90;;;;;;4979977;28;20175;-78
2021/09/22 12:10:04;;;;;;;8.97;5.53;;;20.90;99.90;;;;;;4994852;28;20238;-78
2021/09/22 12:12:32;;;;;;;8.10;5.10;;;20.90;99.90;;;;;;4994566;28;20258;-78
2021/09/22 12:14:57;;;;;;;7.23;5.10;;;20.90;99.90;;;;;;4995548;28;20175;-78
2021/09/22 12:17:31;;;;;;;8.30;5.43;;;21.00;99.90;;;;;;5012118;28;20187;-78
2021/09/22 12:19:59;;;;;;;8.67;6.83;;;20.90;99.90;;;;;;4996446;28;20160;-78
2021/09/22 12:22:27;;;;;;;8.27;6.60;;;20.80;99.90;;;;;;4979037;28;20190;-75
2021/09/22 12:24:53;;;;;;;8.87;7.30;;;20.80;99.90;;;;;;4995017;28;20195;-77
2021/09/22 12:27:20;;;;;;;10.60;6.77;;;20.80;99.90;;;;;;4980176;28;20773;-78
2021/09/22 12:29:53;;;;;;;9.30;6.87;;;21.00;99.90;;;;;;4979247;28;20652;-78
2021/09/22 12:32:19;;;;;;;8.30;6.33;;;21.00;99.90;;;;;;4994620;28;20282;-78